Private Wetterstation Wechselburg
Wetterdaten: Woche 11.09.23 - 17.09.23 (KW37)
Datum Zeit Temp. +2m Bodentemp. Temp.+5cm Temp. Wind Windchill X Diff Temp. Feuchte +2m Feuchte +5cm Luftdruck Regen Wind Richtung Sonnenschein Taupunkt Windchill Windben
11.09.2023 00:00 14,1 C 19,5 C 13,8 C 9,4 C 0,0 C 0,0 C 83 % 78 % 1015,3 hPa 0,0 l/m 0,0 km/h (0 Bft) N 0,00 h 11,3 C 0,0 C 0,0 km/h (0 Bft)
11.09.2023 01:00 13,5 C 19,5 C 13,2 C 9,0 C 0,0 C 0,0 C 84 % 78 % 1015,0 hPa 0,0 l/m 0,0 km/h (0 Bft) N 0,00 h 10,8 C 0,0 C 0,0 km/h (0 Bft)
11.09.2023 02:00 12,9 C 19,3 C 12,7 C 8,6 C 0,0 C 0,0 C 85 % 79 % 1014,6 hPa 0,0 l/m 0,0 km/h (0 Bft) N 0,00 h 10,4 C 0,0 C 0,0 km/h (0 Bft)
11.09.2023 03:00 12,5 C 19,1 C 12,2 C 8,3 C 0,0 C 0,0 C 86 % 79 % 1014,5 hPa 0,0 l/m 0,0 km/h (0 Bft) N 0,00 h 10,1 C 0,0 C 0,0 km/h (0 Bft)
11.09.2023 04:00 12,0 C 18,9 C 11,8 C 8,0 C 0,0 C 0,0 C 86 % 79 % 1014,2 hPa 0,0 l/m 0,0 km/h (0 Bft) N 0,00 h 9,8 C 0,0 C 0,0 km/h (0 Bft)
11.09.2023 05:00 11,6 C 18,7 C 11,3 C 7,8 C 0,0 C 0,0 C 87 % 79 % 1014,3 hPa 0,0 l/m 0,0 km/h (0 Bft) N 0,00 h 9,5 C 0,0 C 0,0 km/h (0 Bft)
11.09.2023 06:00 11,8 C 18,6 C 12,7 C 7,9 C 0,0 C 0,0 C 87 % 78 % 1014,6 hPa 0,0 l/m 0,0 km/h (0 Bft) N 0,00 h 9,8 C 0,0 C 0,0 km/h (0 Bft)
11.09.2023 07:00 14,8 C 18,3 C 13,8 C 9,8 C 0,0 C 0,0 C 87 % 77 % 1014,6 hPa 0,0 l/m 0,0 km/h (0 Bft) N 0,00 h 12,7 C 0,0 C 0,0 km/h (0 Bft)
11.09.2023 08:00 17,5 C 18,1 C 15,7 C 11,7 C 0,0 C 0,0 C 82 % 78 % 1014,5 hPa 0,0 l/m 0,0 km/h (0 Bft) N 0,00 h 14,4 C 0,0 C 0,0 km/h (0 Bft)
11.09.2023 09:00 20,3 C 18,0 C 18,7 C 13,6 C 0,0 C 0,0 C 75 % 75 % 1013,9 hPa 0,0 l/m 0,0 km/h (0 Bft) N 0,00 h 15,8 C 0,0 C 0,0 km/h (0 Bft)
11.09.2023 10:00 22,4 C 18,1 C 20,8 C 14,9 C 0,0 C 0,0 C 68 % 70 % 1013,3 hPa 0,0 l/m 0,0 km/h (0 Bft) N 0,00 h 16,3 C 0,0 C 0,0 km/h (0 Bft)
11.09.2023 12:00 26,8 C 18,2 C 27,0 C 17,9 C 0,0 C 0,0 C 56 % 55 % 1012,9 hPa 0,0 l/m 0,0 km/h (0 Bft) N 0,00 h 17,2 C 0,0 C 0,0 km/h (0 Bft)
11.09.2023 13:00 31,6 C 18,4 C 27,3 C 21,0 C 0,0 C 0,0 C 45 % 51 % 1012,5 hPa 0,0 l/m 0,0 km/h (0 Bft) N 0,00 h 18,0 C 0,0 C 0,0 km/h (0 Bft)
11.09.2023 14:00 32,4 C 18,7 C 28,6 C 21,6 C 0,0 C 0,0 C 40 % 47 % 1012,1 hPa 0,0 l/m 0,0 km/h (0 Bft) N 0,00 h 17,0 C 0,0 C 0,0 km/h (0 Bft)
11.09.2023 15:00 31,5 C 18,8 C 29,2 C 21,0 C 0,0 C 0,0 C 38 % 44 % 1012,0 hPa 0,0 l/m 0,0 km/h (0 Bft) N 0,00 h 15,4 C 0,0 C 0,0 km/h (0 Bft)
11.09.2023 16:00 31,2 C 19,1 C 29,3 C 20,8 C 0,0 C 0,0 C 37 % 42 % 1011,8 hPa 0,0 l/m 0,0 km/h (0 Bft) N 0,00 h 14,7 C 0,0 C 0,0 km/h (0 Bft)
11.09.2023 17:00 30,7 C 19,4 C 28,6 C 20,5 C 0,0 C 0,0 C 38 % 43 % 1011,6 hPa 0,0 l/m 0,0 km/h (0 Bft) N 0,00 h 14,8 C 0,0 C 0,0 km/h (0 Bft)
11.09.2023 18:00 29,5 C 19,6 C 27,5 C 19,6 C 0,0 C 0,0 C 40 % 43 % 1011,8 hPa 0,0 l/m 0,0 km/h (0 Bft) N 0,00 h 14,3 C 0,0 C 0,0 km/h (0 Bft)
11.09.2023 19:00 26,8 C 19,8 C 23,6 C 17,8 C 0,0 C 0,0 C 46 % 50 % 1012,0 hPa 0,0 l/m 0,0 km/h (0 Bft) N 0,00 h 14,2 C 0,0 C 0,0 km/h (0 Bft)
11.09.2023 20:00 22,0 C 19,9 C 19,8 C 14,7 C 0,0 C 0,0 C 58 % 58 % 1012,2 hPa 0,0 l/m 0,0 km/h (0 Bft) N 0,00 h 13,4 C 0,0 C 0,0 km/h (0 Bft)
11.09.2023 21:00 19,3 C 19,8 C 18,0 C 12,9 C 0,0 C 0,0 C 66 % 64 % 1012,5 hPa 0,0 l/m 0,0 km/h (0 Bft) N 0,00 h 12,8 C 0,0 C 0,0 km/h (0 Bft)
11.09.2023 22:00 17,4 C 19,8 C 16,7 C 11,6 C 0,0 C 0,0 C 72 % 69 % 1012,4 hPa 0,0 l/m 0,0 km/h (0 Bft) N 0,00 h 12,4 C 0,0 C 0,0 km/h (0 Bft)
11.09.2023 23:00 16,2 C 19,8 C 15,6 C 10,8 C 0,0 C 0,0 C 76 % 73 % 1012,0 hPa 0,0 l/m 0,0 km/h (0 Bft) N 0,00 h 12,0 C 0,0 C 0,0 km/h (0 Bft)
12.09.2023 00:00 15,2 C 19,7 C 14,8 C 10,1 C 0,0 C 0,0 C 80 % 74 % 1011,9 hPa 0,0 l/m 0,0 km/h (0 Bft) N 0,00 h 11,7 C 0,0 C 0,0 km/h (0 Bft)
12.09.2023 01:00 14,4 C 19,6 C 14,1 C 9,6 C 0,0 C 0,0 C 81 % 76 % 1011,6 hPa 0,0 l/m 0,0 km/h (0 Bft) N 0,00 h 11,2 C 0,0 C 0,0 km/h (0 Bft)
12.09.2023 02:00 13,7 C 19,5 C 13,5 C 9,2 C 0,0 C 0,0 C 83 % 77 % 1011,6 hPa 0,0 l/m 0,0 km/h (0 Bft) N 0,00 h 10,8 C 0,0 C 0,0 km/h (0 Bft)
12.09.2023 03:00 13,3 C 19,4 C 13,0 C 8,9 C 0,0 C 0,0 C 84 % 78 % 1011,8 hPa 0,0 l/m 0,0 km/h (0 Bft) N 0,00 h 10,7 C 0,0 C 0,0 km/h (0 Bft)
12.09.2023 04:00 12,9 C 19,3 C 12,6 C 8,6 C 0,0 C 0,0 C 85 % 78 % 1011,6 hPa 0,0 l/m 0,0 km/h (0 Bft) N 0,00 h 10,5 C 0,0 C 0,0 km/h (0 Bft)
12.09.2023 05:00 12,6 C 19,1 C 12,4 C 8,4 C 0,0 C 0,0 C 86 % 79 % 1011,5 hPa 0,0 l/m 0,0 km/h (0 Bft) N 0,00 h 10,3 C 0,0 C 0,0 km/h (0 Bft)
12.09.2023 06:00 12,3 C 18,9 C 12,0 C 8,2 C 0,0 C 0,0 C 86 % 79 % 1011,6 hPa 0,0 l/m 0,0 km/h (0 Bft) N 0,00 h 10,1 C 0,0 C 0,0 km/h (0 Bft)
12.09.2023 07:00 12,7 C 18,7 C 13,2 C 8,5 C 0,0 C 0,0 C 88 % 79 % 1011,9 hPa 0,0 l/m 0,0 km/h (0 Bft) N 0,00 h 10,7 C 0,0 C 0,0 km/h (0 Bft)
12.09.2023 08:00 15,4 C 18,4 C 14,6 C 10,3 C 0,0 C 0,0 C 87 % 78 % 1012,2 hPa 0,0 l/m 0,0 km/h (0 Bft) N 0,00 h 13,3 C 0,0 C 0,0 km/h (0 Bft)
12.09.2023 09:00 17,9 C 18,2 C 16,5 C 11,9 C 0,0 C 0,0 C 82 % 77 % 1012,1 hPa 0,0 l/m 0,0 km/h (0 Bft) N 0,00 h 14,9 C 0,0 C 0,0 km/h (0 Bft)
12.09.2023 10:00 21,2 C 18,2 C 20,0 C 14,1 C 0,0 C 0,0 C 74 % 72 % 1011,9 hPa 0,0 l/m 0,0 km/h (0 Bft) N 0,00 h 16,2 C 0,0 C 0,0 km/h (0 Bft)
12.09.2023 11:00 24,3 C 18,3 C 23,5 C 16,2 C 0,0 C 0,0 C 63 % 65 % 1012,1 hPa 0,0 l/m 0,0 km/h (0 Bft) N 0,00 h 16,9 C 0,0 C 0,0 km/h (0 Bft)
12.09.2023 12:00 27,8 C 18,4 C 26,6 C 18,5 C 0,0 C 0,0 C 54 % 55 % 1012,0 hPa 0,0 l/m 0,0 km/h (0 Bft) N 0,00 h 17,6 C 0,0 C 0,0 km/h (0 Bft)
12.09.2023 13:00 31,7 C 18,6 C 26,9 C 21,1 C 0,0 C 0,0 C 47 % 55 % 1011,5 hPa 0,0 l/m 0,0 km/h (0 Bft) N 0,00 h 19,0 C 0,0 C 0,0 km/h (0 Bft)
12.09.2023 14:00 30,7 C 18,8 C 27,9 C 20,4 C 0,0 C 0,0 C 46 % 51 % 1011,2 hPa 0,0 l/m 0,0 km/h (0 Bft) N 0,00 h 17,7 C 0,0 C 0,0 km/h (0 Bft)
12.09.2023 15:00 30,5 C 19,2 C 28,7 C 20,4 C 0,0 C 0,0 C 48 % 52 % 1011,0 hPa 0,0 l/m 0,0 km/h (0 Bft) N 0,00 h 18,3 C 0,0 C 0,0 km/h (0 Bft)
12.09.2023 16:00 29,6 C 19,4 C 28,3 C 19,7 C 0,0 C 0,0 C 49 % 50 % 1010,5 hPa 0,0 l/m 0,0 km/h (0 Bft) N 0,00 h 17,9 C 0,0 C 0,0 km/h (0 Bft)
12.09.2023 17:00 29,0 C 19,6 C 28,1 C 19,3 C 0,0 C 0,0 C 53 % 53 % 1010,2 hPa 0,0 l/m 0,0 km/h (0 Bft) N 0,00 h 18,4 C 0,0 C 0,0 km/h (0 Bft)
12.09.2023 18:00 28,2 C 19,9 C 26,7 C 18,8 C 0,0 C 0,0 C 55 % 55 % 1009,9 hPa 0,0 l/m 0,0 km/h (0 Bft) N 0,00 h 18,2 C 0,0 C 0,0 km/h (0 Bft)
12.09.2023 19:00 25,9 C 20,0 C 23,6 C 17,3 C 0,0 C 0,0 C 60 % 62 % 1009,7 hPa 0,0 l/m 0,0 km/h (0 Bft) N 0,00 h 17,5 C 0,0 C 0,0 km/h (0 Bft)
12.09.2023 20:00 22,7 C 20,2 C 21,0 C 15,2 C 0,0 C 0,0 C 68 % 70 % 1009,6 hPa 0,0 l/m 0,0 km/h (0 Bft) N 0,00 h 16,6 C 0,0 C 0,0 km/h (0 Bft)
12.09.2023 21:00 20,6 C 20,3 C 19,5 C 13,7 C 0,0 C 0,0 C 75 % 75 % 1009,7 hPa 0,0 l/m 0,0 km/h (0 Bft) N 0,00 h 16,0 C 0,0 C 0,0 km/h (0 Bft)
12.09.2023 22:00 19,1 C 20,4 C 18,4 C 12,7 C 0,0 C 0,0 C 80 % 78 % 1009,8 hPa 0,0 l/m 0,0 km/h (0 Bft) N 0,00 h 15,5 C 0,0 C 0,0 km/h (0 Bft)
12.09.2023 23:00 18,1 C 20,4 C 17,6 C 12,1 C 0,0 C 0,0 C 82 % 80 % 1009,4 hPa 0,0 l/m 0,0 km/h (0 Bft) N 0,00 h 15,0 C 0,0 C 0,0 km/h (0 Bft)
13.09.2023 00:00 17,6 C 20,3 C 17,3 C 11,7 C 0,0 C 0,0 C 84 % 80 % 1009,1 hPa 0,0 l/m 0,0 km/h (0 Bft) N 0,00 h 14,8 C 0,0 C 0,0 km/h (0 Bft)
13.09.2023 01:00 17,4 C 20,2 C 17,4 C 11,6 C 0,0 C 0,0 C 86 % 80 % 1008,8 hPa 0,0 l/m 0,0 km/h (0 Bft) N 0,00 h 15,0 C 0,0 C 0,0 km/h (0 Bft)
13.09.2023 02:00 18,1 C 20,2 C 17,6 C 12,1 C 0,0 C 0,0 C 86 % 87 % 1009,1 hPa 2,7 l/m 0,0 km/h (0 Bft) N 0,00 h 15,8 C 0,0 C 0,0 km/h (0 Bft)
13.09.2023 03:00 18,2 C 20,1 C 17,4 C 12,1 C 0,0 C 0,0 C 87 % 90 % 1009,0 hPa 0,0 l/m 0,0 km/h (0 Bft) N 0,00 h 15,9 C 0,0 C 0,0 km/h (0 Bft)
13.09.2023 04:00 17,7 C 20,1 C 17,1 C 11,8 C 0,0 C 0,0 C 87 % 90 % 1009,3 hPa 0,0 l/m 0,0 km/h (0 Bft) N 0,00 h 15,5 C 0,0 C 0,0 km/h (0 Bft)
13.09.2023 05:00 16,9 C 20,0 C 16,3 C 11,3 C 0,0 C 0,0 C 87 % 90 % 1009,1 hPa 0,0 l/m 0,0 km/h (0 Bft) N 0,00 h 14,8 C 0,0 C 0,0 km/h (0 Bft)
13.09.2023 06:00 16,3 C 20,0 C 15,9 C 10,8 C 0,0 C 0,0 C 88 % 90 % 1008,8 hPa 0,0 l/m 0,0 km/h (0 Bft) N 0,00 h 14,2 C 0,0 C 0,0 km/h (0 Bft)
13.09.2023 07:00 15,9 C 19,9 C 15,8 C 10,6 C 0,0 C 0,0 C 88 % 90 % 1008,8 hPa 0,0 l/m 0,0 km/h (0 Bft) N 0,00 h 13,9 C 0,0 C 0,0 km/h (0 Bft)
13.09.2023 08:00 16,1 C 19,8 C 16,5 C 10,7 C 0,0 C 0,0 C 88 % 90 % 1009,5 hPa 0,0 l/m 0,0 km/h (0 Bft) N 0,00 h 14,1 C 0,0 C 0,0 km/h (0 Bft)
13.09.2023 09:00 16,9 C 19,7 C 18,0 C 11,3 C 0,0 C 0,0 C 88 % 90 % 1010,3 hPa 0,0 l/m 0,0 km/h (0 Bft) N 0,00 h 14,9 C 0,0 C 0,0 km/h (0 Bft)
13.09.2023 10:00 19,1 C 19,3 C 18,8 C 17,6 C 12,4 C 1,2 C 87 % 90 % 1010,6 hPa 0,0 l/m 0,1 km/h (0 Bft) N 0,00 h 16,8 C 12,4 C 0,1 km/h (0 Bft)
13.09.2023 11:00 20,6 C 19,3 C 19,7 C 22,9 C 22,9 C 2,3 C 80 % 82 % 1011,2 hPa 0,0 l/m 0,0 km/h (0 Bft) N 0,00 h 17,1 C 22,9 C 0,0 km/h (0 Bft)
13.09.2023 12:00 20,9 C 19,3 C 20,0 C 23,2 C 23,2 C 2,3 C 78 % 77 % 1011,6 hPa 0,0 l/m 0,0 km/h (0 Bft) N 0,00 h 16,9 C 23,2 C 1,3 km/h (1 Bft)
13.09.2023 13:00 21,1 C 19,3 C 20,3 C 23,3 C 23,3 C 2,2 C 77 % 74 % 1011,8 hPa 0,0 l/m 0,0 km/h (0 Bft) N 0,00 h 16,9 C 23,3 C 0,0 km/h (0 Bft)
13.09.2023 14:00 21,8 C 19,3 C 21,1 C 24,7 C 24,7 C 2,9 C 75 % 73 % 1012,1 hPa 0,0 l/m 0,0 km/h (0 Bft) N 0,23 h 17,1 C 24,7 C 0,0 km/h (0 Bft)
13.09.2023 15:00 22,1 C 19,3 C 22,0 C 24,7 C 24,7 C 2,6 C 74 % 72 % 1012,2 hPa 0,0 l/m 0,0 km/h (0 Bft) N 0,25 h 17,1 C 24,7 C 0,0 km/h (0 Bft)
13.09.2023 16:00 22,9 C 19,4 C 22,7 C 25,2 C 25,2 C 2,4 C 71 % 69 % 1011,9 hPa 0,0 l/m 0,0 km/h (0 Bft) N 0,08 h 17,3 C 25,2 C 0,0 km/h (0 Bft)
13.09.2023 17:00 23,0 C 19,4 C 22,1 C 23,9 C 23,7 C 1,0 C 70 % 70 % 1012,2 hPa 0,0 l/m 0,0 km/h (0 Bft) N 0,00 h 17,2 C 23,7 C 0,0 km/h (0 Bft)
13.09.2023 18:00 22,0 C 19,5 C 20,8 C 22,1 C 21,9 C 0,2 C 75 % 77 % 1012,2 hPa 0,0 l/m 0,0 km/h (0 Bft) N 0,00 h 17,3 C 21,9 C 0,0 km/h (0 Bft)
13.09.2023 19:00 20,8 C 19,8 C 19,3 C 20,4 C 19,5 C 0,0 C 76 % 80 % 1012,7 hPa 0,0 l/m 0,0 km/h (0 Bft) N 0,00 h 16,5 C 19,5 C 0,0 km/h (0 Bft)
13.09.2023 20:00 19,5 C 19,8 C 18,7 C 19,1 C 18,4 C 0,0 C 80 % 81 % 1013,3 hPa 0,0 l/m 0,2 km/h (0 Bft) NW 0,00 h 15,9 C 18,4 C 1,3 km/h (1 Bft)
13.09.2023 21:00 18,9 C 19,8 C 18,8 C 18,9 C 18,6 C 0,0 C 83 % 81 % 1014,4 hPa 0,7 l/m 0,2 km/h (0 Bft) N 0,00 h 16,0 C 18,6 C 0,8 km/h (0 Bft)
13.09.2023 22:00 18,0 C 20,0 C 17,0 C 17,6 C 17,0 C 0,0 C 85 % 90 % 1015,3 hPa 0,7 l/m 0,5 km/h (0 Bft) N 0,00 h 15,4 C 17,0 C 1,4 km/h (1 Bft)
13.09.2023 23:00 16,5 C 19,9 C 16,0 C 16,3 C 15,9 C 0,0 C 87 % 90 % 1016,0 hPa 0,0 l/m 0,9 km/h (0 Bft) S 0,00 h 14,3 C 15,9 C 2,2 km/h (1 Bft)
14.09.2023 00:00 14,3 C 19,6 C 14,4 C 14,3 C 14,2 C 0,0 C 88 % 90 % 1017,0 hPa 0,0 l/m 0,8 km/h (0 Bft) SW 0,00 h 12,3 C 14,2 C 0,8 km/h (0 Bft)
14.09.2023 01:00 13,3 C 19,4 C 13,6 C 13,3 C 13,3 C 0,0 C 88 % 90 % 1017,3 hPa 0,0 l/m 0,9 km/h (0 Bft) NW 0,00 h 11,4 C 13,3 C 2,1 km/h (1 Bft)
14.09.2023 02:00 12,8 C 19,2 C 13,3 C 12,9 C 12,9 C 0,2 C 88 % 90 % 1017,7 hPa 0,0 l/m 0,7 km/h (0 Bft) SO 0,00 h 10,9 C 12,9 C 0,8 km/h (0 Bft)
14.09.2023 03:00 12,6 C 19,0 C 13,3 C 12,9 C 12,9 C 0,3 C 88 % 90 % 1018,2 hPa 0,0 l/m 0,1 km/h (0 Bft) N 0,00 h 10,7 C 12,9 C 0,0 km/h (0 Bft)
14.09.2023 04:00 12,6 C 18,8 C 13,3 C 13,0 C 13,0 C 0,4 C 88 % 90 % 1018,4 hPa 0,0 l/m 0,0 km/h (0 Bft) N 0,00 h 10,6 C 13,0 C 0,0 km/h (0 Bft)
14.09.2023 05:00 12,7 C 18,7 C 13,3 C 13,0 C 13,0 C 0,4 C 88 % 90 % 1019,0 hPa 0,0 l/m 0,0 km/h (0 Bft) N 0,00 h 10,7 C 13,0 C 0,2 km/h (0 Bft)
14.09.2023 06:00 12,6 C 18,6 C 12,9 C 12,8 C 12,8 C 0,2 C 88 % 84 % 1019,5 hPa 0,0 l/m 0,1 km/h (0 Bft) N 0,00 h 10,6 C 12,8 C 0,0 km/h (0 Bft)
14.09.2023 07:00 12,6 C 18,5 C 13,0 C 13,0 C 13,0 C 0,4 C 88 % 88 % 1020,1 hPa 0,0 l/m 0,0 km/h (0 Bft) N 0,08 h 10,7 C 13,0 C 0,0 km/h (0 Bft)
14.09.2023 08:00 12,8 C 18,3 C 13,1 C 13,5 C 13,5 C 0,7 C 88 % 85 % 1020,3 hPa 0,0 l/m 0,0 km/h (0 Bft) N 0,00 h 10,9 C 13,5 C 0,0 km/h (0 Bft)
14.09.2023 09:00 13,7 C 18,0 C 14,3 C 16,5 C 16,5 C 2,7 C 88 % 81 % 1020,7 hPa 0,0 l/m 0,0 km/h (0 Bft) N 0,42 h 11,7 C 16,5 C 0,0 km/h (0 Bft)
14.09.2023 10:00 15,2 C 17,7 C 15,4 C 18,7 C 18,7 C 3,5 C 83 % 77 % 1020,9 hPa 0,0 l/m 0,0 km/h (0 Bft) N 1,00 h 12,4 C 18,7 C 0,0 km/h (0 Bft)
14.09.2023 11:00 16,3 C 17,6 C 16,3 C 20,1 C 20,1 C 3,8 C 79 % 74 % 1020,7 hPa 0,0 l/m 0,0 km/h (0 Bft) N 0,67 h 12,6 C 20,1 C 0,0 km/h (0 Bft)
14.09.2023 12:00 17,1 C 17,6 C 16,7 C 21,8 C 21,8 C 4,7 C 76 % 69 % 1020,5 hPa 0,0 l/m 0,0 km/h (0 Bft) N 1,00 h 12,7 C 21,8 C 0,0 km/h (0 Bft)
14.09.2023 13:00 18,6 C 17,6 C 18,0 C 23,8 C 23,8 C 5,2 C 71 % 66 % 1020,6 hPa 0,0 l/m 0,0 km/h (0 Bft) N 0,83 h 13,2 C 23,8 C 0,0 km/h (0 Bft)
14.09.2023 14:00 18,5 C 17,6 C 18,2 C 22,7 C 22,7 C 4,2 C 70 % 64 % 1020,4 hPa 0,0 l/m 0,0 km/h (0 Bft) N 0,50 h 12,8 C 22,7 C 0,0 km/h (0 Bft)
14.09.2023 15:00 18,9 C 17,6 C 18,1 C 21,3 C 21,3 C 2,4 C 67 % 60 % 1020,4 hPa 0,0 l/m 0,0 km/h (0 Bft) N 0,33 h 12,5 C 21,3 C 0,0 km/h (0 Bft)
14.09.2023 16:00 18,8 C 17,6 C 18,2 C 20,4 C 20,4 C 1,6 C 66 % 60 % 1020,1 hPa 0,0 l/m 0,0 km/h (0 Bft) N 0,00 h 12,3 C 20,4 C 0,0 km/h (0 Bft)
14.09.2023 17:00 17,8 C 17,7 C 16,9 C 17,8 C 17,6 C 0,0 C 68 % 64 % 1020,5 hPa 0,0 l/m 0,0 km/h (0 Bft) N 0,00 h 11,8 C 17,6 C 0,0 km/h (0 Bft)
14.09.2023 18:00 17,0 C 17,7 C 15,8 C 16,6 C 15,9 C 0,0 C 70 % 69 % 1020,3 hPa 0,0 l/m 0,0 km/h (0 Bft) N 0,00 h 11,4 C 15,9 C 0,0 km/h (0 Bft)
14.09.2023 19:00 14,9 C 17,8 C 13,6 C 14,2 C 12,8 C 0,0 C 74 % 74 % 1020,6 hPa 0,0 l/m 0,0 km/h (0 Bft) N 0,00 h 10,4 C 12,8 C 0,0 km/h (0 Bft)
14.09.2023 20:00 13,0 C 17,8 C 12,0 C 12,3 C 11,0 C 0,0 C 79 % 78 % 1021,0 hPa 0,0 l/m 0,0 km/h (0 Bft) N 0,00 h 9,4 C 11,0 C 0,0 km/h (0 Bft)
14.09.2023 21:00 11,6 C 17,8 C 10,9 C 11,1 C 10,0 C 0,0 C 81 % 80 % 1021,3 hPa 0,0 l/m 0,0 km/h (0 Bft) N 0,00 h 8,5 C 10,0 C 0,0 km/h (0 Bft)
14.09.2023 22:00 10,6 C 17,7 C 10,1 C 10,1 C 9,2 C 0,0 C 83 % 81 % 1021,2 hPa 0,0 l/m 0,0 km/h (0 Bft) N 0,00 h 7,9 C 9,2 C 0,0 km/h (0 Bft)
14.09.2023 23:00 9,8 C 17,5 C 9,3 C 9,3 C 8,4 C 0,0 C 85 % 81 % 1021,1 hPa 0,0 l/m 0,0 km/h (0 Bft) N 0,00 h 7,3 C 8,4 C 0,0 km/h (0 Bft)
15.09.2023 00:00 9,1 C 17,4 C 8,7 C 8,7 C 7,9 C 0,0 C 86 % 81 % 1021,1 hPa 0,0 l/m 0,0 km/h (0 Bft) N 0,00 h 6,8 C 7,9 C 0,0 km/h (0 Bft)
15.09.2023 01:00 8,4 C 17,3 C 8,1 C 8,0 C 7,2 C 0,0 C 86 % 82 % 1021,2 hPa 0,0 l/m 0,0 km/h (0 Bft) N 0,00 h 6,2 C 7,2 C 0,0 km/h (0 Bft)
15.09.2023 02:00 8,0 C 17,0 C 7,7 C 7,7 C 7,0 C 0,0 C 87 % 88 % 1021,0 hPa 0,0 l/m 0,0 km/h (0 Bft) N 0,00 h 6,0 C 7,0 C 0,0 km/h (0 Bft)
15.09.2023 03:00 7,5 C 16,8 C 7,2 C 7,1 C 6,4 C 0,0 C 87 % 85 % 1021,0 hPa 0,0 l/m 0,0 km/h (0 Bft) N 0,00 h 5,5 C 6,4 C 0,0 km/h (0 Bft)
15.09.2023 04:00 6,9 C 16,7 C 6,7 C 6,6 C 5,9 C 0,0 C 88 % 86 % 1021,2 hPa 0,0 l/m 0,0 km/h (0 Bft) N 0,00 h 5,1 C 5,9 C 0,0 km/h (0 Bft)
15.09.2023 05:00 6,5 C 16,5 C 6,4 C 6,2 C 5,6 C 0,0 C 88 % 87 % 1021,3 hPa 0,0 l/m 0,0 km/h (0 Bft) N 0,00 h 4,7 C 5,6 C 0,0 km/h (0 Bft)
15.09.2023 06:00 6,8 C 16,3 C 7,0 C 10,9 C 10,8 C 4,1 C 88 % 87 % 1021,5 hPa 0,0 l/m 0,0 km/h (0 Bft) N 0,08 h 5,0 C 10,8 C 0,0 km/h (0 Bft)
15.09.2023 07:00 9,3 C 16,2 C 8,4 C 17,9 C 17,9 C 8,6 C 88 % 87 % 1021,8 hPa 0,0 l/m 0,0 km/h (0 Bft) N 1,00 h 7,4 C 17,9 C 0,0 km/h (0 Bft)
15.09.2023 08:00 11,8 C 16,0 C 11,3 C 14,8 C 14,8 C 3,1 C 88 % 90 % 1021,2 hPa 0,0 l/m 0,1 km/h (0 Bft) O-NO 0,67 h 9,8 C 14,8 C 0,4 km/h (0 Bft)
15.09.2023 09:00 14,9 C 16,0 C 14,3 C 16,4 C 16,4 C 1,5 C 87 % 85 % 1021,4 hPa 0,0 l/m 2,4 km/h (1 Bft) N-NO 0,00 h 12,8 C 16,4 C 1,6 km/h (1 Bft)
15.09.2023 10:00 16,5 C 15,9 C 15,7 C 17,6 C 17,6 C 1,1 C 82 % 77 % 1021,2 hPa 0,0 l/m 0,4 km/h (0 Bft) N 0,00 h 13,4 C 17,6 C 0,6 km/h (0 Bft)
15.09.2023 11:00 19,8 C 16,0 C 19,4 C 22,4 C 22,4 C 2,6 C 69 % 63 % 1020,1 hPa 0,0 l/m 0,1 km/h (0 Bft) N 0,33 h 13,8 C 22,4 C 0,0 km/h (0 Bft)
15.09.2023 12:00 22,1 C 16,2 C 20,8 C 27,8 C 27,8 C 5,7 C 59 % 55 % 1019,6 hPa 0,0 l/m 0,6 km/h (0 Bft) O-NO 1,00 h 13,6 C 27,8 C 0,8 km/h (0 Bft)
15.09.2023 13:00 22,4 C 16,3 C 21,9 C 27,7 C 27,7 C 5,2 C 55 % 51 % 1019,2 hPa 0,0 l/m 1,3 km/h (1 Bft) NO 1,00 h 13,0 C 27,7 C 1,6 km/h (1 Bft)
15.09.2023 14:00 22,6 C 16,5 C 22,1 C 28,3 C 28,3 C 5,7 C 52 % 48 % 1018,7 hPa 0,0 l/m 0,5 km/h (0 Bft) N 1,00 h 12,4 C 28,3 C 0,8 km/h (0 Bft)
15.09.2023 15:00 22,7 C 16,8 C 22,1 C 23,5 C 23,5 C 0,8 C 52 % 47 % 1018,2 hPa 0,0 l/m 2,0 km/h (1 Bft) NO 0,00 h 12,3 C 23,5 C 3,5 km/h (1 Bft)
15.09.2023 16:00 22,5 C 16,9 C 21,5 C 22,6 C 22,6 C 0,2 C 51 % 47 % 1018,1 hPa 0,0 l/m 1,3 km/h (1 Bft) NO 0,00 h 11,9 C 22,6 C 2,0 km/h (1 Bft)
15.09.2023 17:00 21,7 C 17,1 C 20,3 C 21,7 C 21,5 C 0,0 C 54 % 50 % 1017,6 hPa 0,0 l/m 0,6 km/h (0 Bft) NO 0,00 h 11,9 C 21,5 C 1,4 km/h (1 Bft)
15.09.2023 18:00 20,0 C 17,2 C 18,1 C 19,7 C 19,1 C 0,0 C 58 % 54 % 1017,5 hPa 0,0 l/m 0,1 km/h (0 Bft) N 0,00 h 11,3 C 19,1 C 0,0 km/h (0 Bft)
15.09.2023 19:00 17,7 C 17,3 C 15,9 C 17,3 C 16,4 C 0,0 C 64 % 60 % 1017,7 hPa 0,0 l/m 0,0 km/h (0 Bft) N 0,00 h 10,8 C 16,4 C 0,0 km/h (0 Bft)
15.09.2023 20:00 15,2 C 17,3 C 13,8 C 14,5 C 13,2 C 0,0 C 71 % 68 % 1017,7 hPa 0,0 l/m 0,0 km/h (0 Bft) N 0,00 h 9,8 C 13,2 C 0,0 km/h (0 Bft)
15.09.2023 21:00 13,4 C 17,4 C 12,5 C 12,9 C 11,9 C 0,0 C 77 % 74 % 1017,9 hPa 0,0 l/m 0,0 km/h (0 Bft) N 0,00 h 9,5 C 11,9 C 0,0 km/h (0 Bft)
15.09.2023 22:00 12,2 C 17,4 C 11,6 C 11,8 C 10,8 C 0,0 C 80 % 76 % 1017,6 hPa 0,0 l/m 0,0 km/h (0 Bft) N 0,00 h 9,0 C 10,8 C 0,0 km/h (0 Bft)
15.09.2023 23:00 11,2 C 17,3 C 10,8 C 10,8 C 10,0 C 0,0 C 82 % 77 % 1017,8 hPa 0,0 l/m 0,0 km/h (0 Bft) N 0,00 h 8,3 C 10,0 C 0,0 km/h (0 Bft)
16.09.2023 00:00 10,5 C 17,2 C 10,2 C 10,2 C 9,6 C 0,0 C 84 % 79 % 1017,6 hPa 0,0 l/m 0,0 km/h (0 Bft) N 0,00 h 8,0 C 9,6 C 0,0 km/h (0 Bft)
16.09.2023 01:00 10,1 C 17,0 C 9,8 C 9,8 C 9,3 C 0,0 C 85 % 79 % 1017,4 hPa 0,0 l/m 0,0 km/h (0 Bft) N 0,00 h 7,7 C 9,3 C 0,0 km/h (0 Bft)
16.09.2023 02:00 10,3 C 16,9 C 10,1 C 10,2 C 10,0 C 0,0 C 87 % 80 % 1017,2 hPa 0,0 l/m 0,1 km/h (0 Bft) N 0,00 h 8,2 C 10,0 C 0,0 km/h (0 Bft)
16.09.2023 03:00 10,0 C 16,9 C 9,6 C 9,8 C 9,4 C 0,0 C 87 % 80 % 1016,9 hPa 0,0 l/m 0,0 km/h (0 Bft) N 0,00 h 8,0 C 9,4 C 0,0 km/h (0 Bft)
16.09.2023 04:00 9,6 C 16,7 C 9,3 C 9,3 C 8,8 C 0,0 C 87 % 81 % 1016,5 hPa 0,0 l/m 0,0 km/h (0 Bft) N 0,00 h 7,6 C 8,8 C 0,0 km/h (0 Bft)
16.09.2023 05:00 9,1 C 16,6 C 8,8 C 8,9 C 8,4 C 0,0 C 87 % 82 % 1016,9 hPa 0,0 l/m 0,0 km/h (0 Bft) N 0,00 h 7,1 C 8,4 C 0,0 km/h (0 Bft)
16.09.2023 06:00 9,3 C 16,5 C 9,2 C 11,7 C 11,7 C 2,5 C 88 % 85 % 1016,9 hPa 0,0 l/m 0,0 km/h (0 Bft) N 0,08 h 7,4 C 11,7 C 0,0 km/h (0 Bft)
16.09.2023 07:00 10,3 C 16,3 C 9,9 C 19,8 C 19,8 C 9,5 C 88 % 80 % 1016,7 hPa 0,0 l/m 0,0 km/h (0 Bft) N 0,58 h 8,4 C 19,8 C 0,0 km/h (0 Bft)
16.09.2023 09:00 14,0 C 16,1 C 13,7 C 18,9 C 18,9 C 5,0 C 88 % 84 % 1016,2 hPa 0,0 l/m 0,1 km/h (0 Bft) N 1,60 h 12,0 C 18,9 C 0,3 km/h (0 Bft)
16.09.2023 10:00 17,5 C 16,1 C 16,7 C 19,4 C 19,4 C 1,8 C 83 % 77 % 1016,1 hPa 0,0 l/m 0,0 km/h (0 Bft) N 0,00 h 14,5 C 19,4 C 0,0 km/h (0 Bft)
16.09.2023 11:00 20,3 C 16,1 C 19,2 C 21,3 C 21,3 C 0,9 C 71 % 68 % 1015,9 hPa 0,0 l/m 0,0 km/h (0 Bft) N 0,00 h 14,9 C 21,3 C 0,0 km/h (0 Bft)
16.09.2023 12:00 22,4 C 16,2 C 21,8 C 25,3 C 25,3 C 2,9 C 63 % 58 % 1015,6 hPa 0,0 l/m 0,0 km/h (0 Bft) N 0,23 h 14,9 C 25,3 C 0,0 km/h (0 Bft)
16.09.2023 13:00 26,6 C 16,4 C 22,8 C 32,9 C 32,9 C 6,3 C 53 % 57 % 1015,1 hPa 0,0 l/m 0,0 km/h (0 Bft) N 1,00 h 16,0 C 32,9 C 0,0 km/h (0 Bft)
16.09.2023 14:00 27,5 C 16,6 C 24,6 C 33,7 C 33,7 C 6,2 C 49 % 52 % 1014,8 hPa 0,0 l/m 0,0 km/h (0 Bft) N 1,00 h 15,7 C 33,7 C 0,0 km/h (0 Bft)
16.09.2023 15:00 26,7 C 16,9 C 25,2 C 34,1 C 34,1 C 7,4 C 49 % 50 % 1014,2 hPa 0,0 l/m 0,0 km/h (0 Bft) N 1,00 h 15,0 C 34,1 C 0,0 km/h (0 Bft)
16.09.2023 16:00 26,5 C 17,2 C 25,3 C 28,0 C 28,0 C 1,5 C 49 % 49 % 1013,7 hPa 0,0 l/m 0,0 km/h (0 Bft) N 0,08 h 14,8 C 28,0 C 0,0 km/h (0 Bft)
16.09.2023 17:00 26,5 C 17,3 C 25,0 C 26,6 C 26,6 C 0,1 C 49 % 50 % 1013,2 hPa 0,0 l/m 0,0 km/h (0 Bft) N 0,00 h 14,8 C 26,6 C 0,0 km/h (0 Bft)
16.09.2023 18:00 25,9 C 17,6 C 23,6 C 25,6 C 25,1 C 0,0 C 51 % 54 % 1013,2 hPa 0,0 l/m 0,0 km/h (0 Bft) N 0,00 h 14,8 C 25,1 C 0,0 km/h (0 Bft)
16.09.2023 19:00 22,6 C 17,8 C 19,9 C 22,0 C 20,8 C 0,0 C 58 % 62 % 1013,5 hPa 0,0 l/m 0,0 km/h (0 Bft) N 0,00 h 13,9 C 20,8 C 0,0 km/h (0 Bft)
16.09.2023 20:00 19,2 C 17,9 C 17,5 C 18,7 C 17,6 C 0,0 C 67 % 68 % 1013,8 hPa 0,0 l/m 0,0 km/h (0 Bft) N 0,00 h 13,0 C 17,6 C 0,0 km/h (0 Bft)
16.09.2023 21:00 17,1 C 18,0 C 15,9 C 16,6 C 15,5 C 0,0 C 75 % 74 % 1014,2 hPa 0,0 l/m 0,0 km/h (0 Bft) N 0,00 h 12,5 C 15,5 C 0,0 km/h (0 Bft)
16.09.2023 22:00 15,6 C 18,1 C 14,9 C 15,2 C 14,3 C 0,0 C 78 % 77 % 1014,1 hPa 0,0 l/m 0,0 km/h (0 Bft) N 0,00 h 11,8 C 14,3 C 0,0 km/h (0 Bft)
16.09.2023 23:00 14,5 C 18,1 C 14,0 C 14,1 C 13,2 C 0,0 C 81 % 79 % 1014,0 hPa 0,0 l/m 0,0 km/h (0 Bft) N 0,00 h 11,2 C 13,2 C 0,0 km/h (0 Bft)
17.09.2023 00:00 13,7 C 18,0 C 13,3 C 13,3 C 12,7 C 0,0 C 82 % 80 % 1014,0 hPa 0,0 l/m 0,0 km/h (0 Bft) N 0,00 h 10,7 C 12,7 C 0,0 km/h (0 Bft)
17.09.2023 01:00 13,2 C 18,0 C 12,8 C 12,8 C 12,2 C 0,0 C 84 % 81 % 1014,2 hPa 0,0 l/m 0,0 km/h (0 Bft) N 0,00 h 10,5 C 12,2 C 0,0 km/h (0 Bft)
17.09.2023 02:00 12,7 C 17,8 C 12,4 C 12,4 C 11,9 C 0,0 C 85 % 82 % 1014,2 hPa 0,0 l/m 0,0 km/h (0 Bft) N 0,00 h 10,3 C 11,9 C 0,0 km/h (0 Bft)
17.09.2023 03:00 12,2 C 17,8 C 11,7 C 11,9 C 11,3 C 0,0 C 86 % 81 % 1014,1 hPa 0,0 l/m 0,0 km/h (0 Bft) N 0,00 h 10,0 C 11,3 C 0,0 km/h (0 Bft)
17.09.2023 04:00 11,9 C 17,7 C 11,5 C 11,7 C 11,2 C 0,0 C 87 % 85 % 1014,2 hPa 0,0 l/m 0,0 km/h (0 Bft) N 0,00 h 9,8 C 11,2 C 0,0 km/h (0 Bft)
17.09.2023 05:00 11,5 C 17,5 C 11,2 C 11,3 C 10,8 C 0,0 C 87 % 86 % 1014,4 hPa 0,0 l/m 0,0 km/h (0 Bft) N 0,00 h 9,4 C 10,8 C 0,0 km/h (0 Bft)
17.09.2023 06:00 11,0 C 17,4 C 10,7 C 10,8 C 10,3 C 0,0 C 87 % 85 % 1014,3 hPa 0,0 l/m 0,0 km/h (0 Bft) N 0,00 h 9,0 C 10,3 C 0,0 km/h (0 Bft)
17.09.2023 07:00 11,0 C 17,2 C 11,1 C 12,9 C 12,7 C 1,9 C 88 % 87 % 1014,7 hPa 0,0 l/m 0,0 km/h (0 Bft) N 0,58 h 9,1 C 12,7 C 0,0 km/h (0 Bft)
17.09.2023 08:00 12,9 C 17,1 C 13,5 C 19,6 C 19,6 C 6,7 C 88 % 83 % 1015,2 hPa 0,0 l/m 0,0 km/h (0 Bft) N 1,00 h 11,0 C 19,6 C 0,0 km/h (0 Bft)
17.09.2023 09:00 15,6 C 16,8 C 15,9 C 22,2 C 22,2 C 6,6 C 88 % 83 % 1015,0 hPa 0,0 l/m 0,0 km/h (0 Bft) N 0,92 h 13,6 C 22,2 C 0,0 km/h (0 Bft)
17.09.2023 10:00 20,3 C 16,7 C 19,7 C 25,0 C 25,0 C 4,7 C 80 % 78 % 1014,9 hPa 0,0 l/m 0,0 km/h (0 Bft) N 1,00 h 16,6 C 25,0 C 0,0 km/h (0 Bft)
17.09.2023 11:00 22,8 C 16,9 C 21,1 C 25,2 C 25,2 C 2,4 C 68 % 70 % 1015,0 hPa 0,0 l/m 0,0 km/h (0 Bft) N 0,08 h 16,5 C 25,2 C 0,0 km/h (0 Bft)
17.09.2023 12:00 24,9 C 17,0 C 23,0 C 28,4 C 28,4 C 3,5 C 60 % 63 % 1014,9 hPa 0,0 l/m 0,0 km/h (0 Bft) N 0,33 h 16,4 C 28,4 C 0,0 km/h (0 Bft)
17.09.2023 13:00 27,9 C 17,2 C 24,8 C 34,6 C 34,6 C 6,7 C 52 % 56 % 1014,8 hPa 0,0 l/m 0,0 km/h (0 Bft) N 1,00 h 17,0 C 34,6 C 0,0 km/h (0 Bft)
17.09.2023 14:00 30,2 C 17,4 C 26,9 C 36,5 C 36,5 C 6,3 C 43 % 51 % 1014,4 hPa 0,0 l/m 0,0 km/h (0 Bft) N 1,00 h 16,2 C 36,5 C 0,0 km/h (0 Bft)
17.09.2023 15:00 29,5 C 17,7 C 27,7 C 36,4 C 36,4 C 6,9 C 42 % 45 % 1013,8 hPa 0,0 l/m 0,0 km/h (0 Bft) N 1,00 h 15,1 C 36,4 C 0,0 km/h (0 Bft)
17.09.2023 16:00 29,0 C 18,0 C 27,6 C 30,1 C 30,1 C 1,1 C 42 % 44 % 1013,5 hPa 0,0 l/m 0,0 km/h (0 Bft) N 0,08 h 14,7 C 30,1 C 0,0 km/h (0 Bft)
17.09.2023 17:00 28,8 C 18,2 C 27,4 C 28,9 C 28,9 C 0,2 C 41 % 42 % 1013,3 hPa 0,0 l/m 0,0 km/h (0 Bft) N 0,00 h 14,3 C 28,9 C 0,2 km/h (0 Bft)
17.09.2023 18:00 28,0 C 18,4 C 25,6 C 27,7 C 27,1 C 0,0 C 45 % 47 % 1013,3 hPa 0,0 l/m 0,0 km/h (0 Bft) N 0,00 h 15,0 C 27,1 C 0,0 km/h (0 Bft)
17.09.2023 19:00 24,3 C 18,6 C 21,6 C 23,8 C 22,8 C 0,0 C 56 % 59 % 1013,2 hPa 0,0 l/m 0,0 km/h (0 Bft) N 0,00 h 14,8 C 22,8 C 0,0 km/h (0 Bft)
17.09.2023 20:00 21,0 C 18,7 C 19,4 C 20,5 C 19,5 C 0,0 C 65 % 66 % 1013,3 hPa 0,0 l/m 0,0 km/h (0 Bft) N 0,00 h 14,3 C 19,5 C 0,0 km/h (0 Bft)
17.09.2023 21:00 19,0 C 18,7 C 17,9 C 18,6 C 17,8 C 0,0 C 73 % 71 % 1013,0 hPa 0,0 l/m 0,0 km/h (0 Bft) N 0,00 h 13,9 C 17,8 C 0,0 km/h (0 Bft)
17.09.2023 22:00 18,1 C 18,7 C 17,8 C 18,1 C 17,9 C 0,1 C 77 % 72 % 1012,6 hPa 0,0 l/m 0,0 km/h (0 Bft) N 0,00 h 14,0 C 17,9 C 0,0 km/h (0 Bft)
17.09.2023 23:00 19,0 C 18,7 C 18,5 C 19,0 C 18,9 C 0,0 C 74 % 68 % 1012,5 hPa 0,0 l/m 0,0 km/h (0 Bft) N 0,00 h 14,2 C 18,9 C 0,0 km/h (0 Bft)
Min-Datum _ 15.09.23 15.09.23 15.09.23 15.09.23 11.09.23 11.09.23 11.09.23 11.09.23 13.09.23 - 11.09.23 - - 15.09.23 11.09.23 11.09.23
_ Min-Zeit 06:12 10:45 06:07 05:27 00:02 00:02 16:05 16:05 01:55 - 00:02 - - 06:12 00:02 00:02
Minimum _ 6,3 C 15,8 C 6,1 C 6,1 C 0,0 C 0,0 C 36 % 40 % 1008,5 hPa - 0,0 km/h (0 Bft) - - 4,5 C 0,0 C 0,0 km/h (0 Bft)
Max-Datum _ 11.09.23 12.09.23 11.09.23 17.09.23 17.09.23 15.09.23 15.09.23 13.09.23 15.09.23 13.09.23 15.09.23 - 16.09.23 12.09.23 17.09.23 13.09.23
_ Max-Zeit 14:05 22:05 16:11 15:25 15:25 07:27 06:57 02:35 07:32 02:32 15:17 - 09:14 13:45 15:25 23:25
Maximum _ 33,3 C 20,4 C 29,6 C 37,7 C 37,7 C 12,3 C 89 % 90 % 1021,9 hPa 2,7 l/m 4,5 km/h
NO (1 Bft)
- 1,00 h 19,4 C 37,7 C 10,9 km/h
S (2 Bft)
Durchschnitt _ 18,1 C 18,2 C 17,3 C 16,7 C 11,9 C 1,1 C 74 % 72 % 1014,9 hPa #4,1 l/m 0,1 km/h (0 Bft) NO #23:04 h 12,8 C 11,9 C 0,1 km/h (0 Bft)
2023 www.wetterstation-wechselburg.de